createdAt,value
2017-09-10T00:02:00.232Z,6.53
2017-09-10T00:04:26.974Z,6.80
2017-09-10T00:06:53.741Z,7.27
2017-09-10T00:09:20.466Z,7.10
2017-09-10T00:11:47.190Z,6.90
2017-09-10T00:14:13.878Z,7.20
2017-09-10T00:16:40.576Z,6.43
2017-09-10T00:19:07.329Z,6.30
2017-09-10T00:21:34.030Z,6.30
2017-09-10T00:24:00.717Z,6.80
2017-09-10T00:26:27.441Z,6.87
2017-09-10T00:28:54.153Z,5.93
2017-09-10T00:31:20.887Z,7.00
2017-09-10T00:33:47.594Z,6.27
2017-09-10T00:36:14.300Z,6.43
2017-09-10T00:38:40.992Z,6.90
2017-09-10T00:41:07.749Z,6.97
2017-09-10T00:43:34.459Z,7.00
2017-09-10T00:46:01.159Z,6.60
2017-09-10T00:48:28.037Z,7.47
2017-09-10T00:50:54.789Z,6.90
2017-09-10T00:53:21.519Z,7.27
2017-09-10T00:55:48.320Z,6.60
2017-09-10T00:58:15.094Z,7.20
2017-09-10T01:00:41.796Z,7.60
2017-09-10T01:03:08.510Z,6.47
2017-09-10T01:05:35.207Z,7.30
2017-09-10T01:08:01.910Z,7.53
2017-09-10T01:10:28.650Z,7.10
2017-09-10T01:12:55.350Z,6.70
2017-09-10T01:15:22.076Z,7.20
2017-09-10T01:17:48.808Z,7.00
2017-09-10T01:20:15.518Z,7.47
2017-09-10T01:22:42.263Z,5.90
2017-09-10T01:25:09.004Z,6.90
2017-09-10T01:27:35.716Z,7.03
2017-09-10T01:30:02.434Z,7.40
2017-09-10T01:32:29.232Z,7.80
2017-09-10T01:34:55.967Z,6.30
2017-09-10T01:37:22.654Z,6.97
2017-09-10T01:39:49.377Z,6.67
2017-09-10T01:42:16.076Z,6.87
2017-09-10T01:44:42.765Z,7.60
2017-09-10T01:47:09.493Z,7.33
2017-09-10T01:49:36.194Z,6.23
2017-09-10T01:52:02.892Z,6.27
2017-09-10T01:54:29.616Z,7.20
2017-09-10T01:56:56.310Z,7.00
2017-09-10T01:59:23.088Z,7.23
2017-09-10T02:01:49.801Z,6.63
2017-09-10T02:04:16.487Z,7.17
2017-09-10T02:06:43.184Z,7.67
2017-09-10T02:09:09.982Z,7.23
2017-09-10T02:11:36.756Z,6.70
2017-09-10T02:14:03.457Z,6.57
2017-09-10T02:16:30.192Z,6.90
2017-09-10T02:18:56.899Z,7.43
2017-09-10T02:21:23.621Z,7.13
2017-09-10T02:23:50.343Z,7.13
2017-09-10T02:26:17.092Z,6.60
2017-09-10T02:28:43.796Z,7.80
2017-09-10T02:31:10.504Z,7.03
2017-09-10T02:33:37.256Z,7.93
2017-09-10T02:36:03.968Z,8.53
2017-09-10T02:38:30.711Z,7.73
2017-09-10T02:40:57.447Z,7.80
2017-09-10T02:43:24.143Z,7.30
2017-09-10T02:45:50.865Z,6.93
2017-09-10T02:48:17.566Z,7.23
2017-09-10T02:50:44.257Z,8.07
2017-09-10T02:53:11.048Z,7.97
2017-09-10T02:55:37.982Z,7.60
2017-09-10T02:58:04.694Z,7.47
2017-09-10T03:00:31.443Z,7.37
2017-09-10T03:02:58.169Z,7.23
2017-09-10T03:05:24.861Z,6.80
2017-09-10T03:07:51.583Z,7.43
2017-09-10T03:10:18.350Z,7.17
2017-09-10T03:12:45.041Z,8.20
2017-09-10T03:15:11.850Z,6.93
2017-09-10T03:17:38.544Z,6.87
2017-09-10T03:20:05.242Z,7.60
2017-09-10T03:22:31.958Z,8.53
2017-09-10T03:24:58.652Z,7.57
2017-09-10T03:27:25.369Z,6.67
2017-09-10T03:29:52.106Z,6.60
2017-09-10T03:32:18.794Z,7.67
2017-09-10T03:34:45.487Z,7.83
2017-09-10T03:37:12.276Z,7.10
2017-09-10T03:39:38.975Z,6.80
2017-09-10T03:42:05.679Z,7.63
2017-09-10T03:44:32.467Z,7.27
2017-09-10T03:46:59.174Z,7.10
2017-09-10T03:49:25.902Z,6.67
2017-09-10T03:51:52.622Z,7.50
2017-09-10T03:54:19.335Z,6.37
2017-09-10T03:56:46.047Z,8.00
2017-09-10T03:59:12.815Z,7.43
2017-09-10T04:01:39.511Z,7.63
2017-09-10T04:04:06.274Z,7.90
2017-09-10T04:06:33.083Z,7.83
2017-09-10T04:08:59.790Z,8.07
2017-09-10T04:11:26.563Z,8.50
2017-09-10T04:13:53.279Z,8.47
2017-09-10T04:16:19.993Z,7.60
2017-09-10T04:18:46.711Z,8.30
2017-09-10T04:21:13.431Z,8.07
2017-09-10T04:23:40.139Z,8.13
2017-09-10T04:26:06.851Z,7.83
2017-09-10T04:28:33.595Z,7.93
2017-09-10T04:31:00.327Z,6.63
2017-09-10T04:33:27.036Z,8.50
2017-09-10T04:35:53.760Z,7.37
2017-09-10T04:38:20.466Z,6.90
2017-09-10T04:40:47.251Z,8.50
2017-09-10T04:43:14.015Z,8.47
2017-09-10T04:45:40.736Z,7.20
2017-09-10T04:48:07.522Z,7.07
2017-09-10T04:50:34.278Z,7.83
2017-09-10T04:53:00.980Z,6.47
2017-09-10T04:55:27.742Z,6.80
2017-09-10T04:57:54.500Z,7.83
2017-09-10T05:00:21.283Z,7.60
2017-09-10T05:02:47.986Z,6.30
2017-09-10T05:05:14.731Z,7.33
2017-09-10T05:07:41.477Z,7.67
2017-09-10T05:10:08.187Z,6.80
2017-09-10T05:12:34.943Z,7.87
2017-09-10T05:15:01.646Z,6.47
2017-09-10T05:17:28.377Z,6.93
2017-09-10T05:19:55.130Z,7.17
2017-09-10T05:22:21.861Z,7.37
2017-09-10T05:24:48.630Z,7.43
2017-09-10T05:27:15.344Z,7.17
2017-09-10T05:29:42.035Z,7.40
2017-09-10T05:32:08.792Z,7.60
2017-09-10T05:34:35.536Z,6.93
2017-09-10T05:37:02.281Z,7.57
2017-09-10T05:39:28.993Z,7.57
2017-09-10T05:41:55.769Z,7.83
2017-09-10T05:44:22.477Z,6.73
2017-09-10T05:46:49.174Z,7.43
2017-09-10T05:49:15.947Z,7.27
2017-09-10T05:51:42.640Z,7.73
2017-09-10T05:54:09.334Z,7.30
2017-09-10T05:56:36.051Z,7.00
2017-09-10T05:59:02.746Z,7.20
2017-09-10T06:01:29.463Z,7.67
2017-09-10T06:03:56.192Z,8.23
2017-09-10T06:06:22.895Z,7.53
2017-09-10T06:08:49.691Z,8.27
2017-09-10T06:11:16.415Z,7.57
2017-09-10T06:13:43.115Z,7.37
2017-09-10T06:16:09.864Z,7.70
2017-09-10T06:18:36.634Z,6.33
2017-09-10T06:21:03.372Z,6.90
2017-09-10T06:23:30.092Z,6.80
2017-09-10T06:25:56.820Z,7.50
2017-09-10T06:28:23.575Z,7.77
2017-09-10T06:30:50.262Z,7.07
2017-09-10T06:33:17.033Z,7.00
2017-09-10T06:35:43.727Z,7.00
2017-09-10T06:38:10.432Z,6.80
2017-09-10T06:40:37.158Z,6.83
2017-09-10T06:43:03.896Z,6.90
2017-09-10T06:45:30.599Z,6.50
2017-09-10T06:47:57.330Z,5.90
2017-09-10T06:50:24.110Z,6.37
2017-09-10T06:52:50.801Z,5.80
2017-09-10T06:55:17.534Z,6.97
2017-09-10T06:57:44.221Z,6.33
2017-09-10T07:00:10.911Z,6.70
2017-09-10T07:02:37.763Z,6.40
2017-09-10T07:05:04.458Z,6.67
2017-09-10T07:07:31.152Z,6.57
2017-09-10T07:09:57.949Z,6.30
2017-09-10T07:12:24.639Z,5.80
2017-09-10T07:14:51.321Z,6.93
2017-09-10T07:17:18.029Z,6.33
2017-09-10T07:19:44.759Z,5.77
2017-09-10T07:22:11.498Z,6.60
2017-09-10T07:24:38.239Z,6.57
2017-09-10T07:27:04.992Z,6.50
2017-09-10T07:29:31.687Z,6.83
2017-09-10T07:31:58.410Z,6.37
2017-09-10T07:34:25.110Z,5.93
2017-09-10T07:36:51.800Z,6.00
2017-09-10T07:39:18.503Z,6.10
2017-09-10T07:41:45.235Z,7.30
2017-09-10T07:44:11.958Z,6.37
2017-09-10T07:46:38.678Z,6.53
2017-09-10T07:49:05.367Z,6.77
2017-09-10T07:51:32.085Z,6.10
2017-09-10T07:53:58.811Z,6.13
2017-09-10T07:56:25.498Z,7.07
2017-09-10T07:58:52.311Z,6.70
2017-09-10T08:01:19.032Z,6.60
2017-09-10T08:03:45.791Z,6.33
2017-09-10T08:06:12.519Z,6.83
2017-09-10T08:08:39.257Z,6.63
2017-09-10T08:11:06.030Z,6.00
2017-09-10T08:13:32.834Z,5.87
2017-09-10T08:15:59.604Z,6.30
2017-09-10T08:18:26.343Z,5.83
2017-09-10T08:20:53.048Z,6.13
2017-09-10T08:23:19.847Z,6.43
2017-09-10T08:25:46.547Z,6.10
2017-09-10T08:28:13.278Z,6.97
2017-09-10T08:30:40.030Z,6.70
2017-09-10T08:33:06.731Z,6.40
2017-09-10T08:35:33.452Z,6.60
2017-09-10T08:38:00.210Z,6.03
2017-09-10T08:40:26.967Z,6.30
2017-09-10T08:42:53.744Z,6.10
2017-09-10T08:45:20.541Z,5.67
2017-09-10T08:47:47.236Z,6.30
2017-09-10T08:50:13.966Z,5.23
2017-09-10T08:52:40.704Z,6.50
2017-09-10T08:55:07.405Z,6.57
2017-09-10T08:57:34.136Z,5.63
2017-09-10T09:00:00.863Z,5.87
2017-09-10T09:02:27.561Z,6.70
2017-09-10T09:04:54.271Z,5.67
2017-09-10T09:07:21.001Z,6.40
2017-09-10T09:09:47.726Z,5.70
2017-09-10T09:12:14.516Z,6.87
2017-09-10T09:14:41.239Z,6.23
2017-09-10T09:17:07.934Z,5.93
2017-09-10T09:19:34.638Z,5.87
2017-09-10T09:22:01.359Z,6.37
2017-09-10T09:24:28.056Z,6.27
2017-09-10T09:26:54.774Z,5.60
2017-09-10T09:29:21.523Z,6.30
2017-09-10T09:31:48.250Z,5.50
2017-09-10T09:34:14.976Z,6.33
2017-09-10T09:36:41.709Z,6.17
2017-09-10T09:39:08.414Z,5.37
2017-09-10T09:41:35.120Z,6.00
2017-09-10T09:44:01.922Z,6.07
2017-09-10T09:46:28.615Z,6.90
2017-09-10T09:48:55.307Z,6.27
2017-09-10T09:51:22.121Z,6.00
2017-09-10T09:53:49.015Z,6.57
2017-09-10T09:56:15.704Z,6.50
2017-09-10T09:58:42.632Z,6.90
2017-09-10T10:01:09.343Z,6.50
2017-09-10T10:03:36.039Z,5.80
2017-09-10T10:06:02.816Z,5.47
2017-09-10T10:08:29.525Z,4.90
2017-09-10T10:10:56.305Z,5.80
2017-09-10T10:13:23.046Z,6.00
2017-09-10T10:15:49.827Z,5.13
2017-09-10T10:18:16.537Z,5.67
2017-09-10T10:20:43.295Z,5.33
2017-09-10T10:23:10.019Z,5.30
2017-09-10T10:25:36.715Z,5.37
2017-09-10T10:28:03.489Z,5.30
2017-09-10T10:30:30.251Z,5.87
2017-09-10T10:32:56.940Z,5.00
2017-09-10T10:35:23.666Z,6.47
2017-09-10T10:37:50.366Z,5.10
2017-09-10T10:40:17.091Z,4.97
2017-09-10T10:42:43.856Z,4.60
2017-09-10T10:45:10.562Z,5.07
2017-09-10T10:47:37.263Z,4.60
2017-09-10T10:50:03.986Z,4.93
2017-09-10T10:52:30.707Z,4.10
2017-09-10T10:54:57.405Z,4.07
2017-09-10T10:57:24.177Z,4.80
2017-09-10T10:59:50.880Z,4.17
2017-09-10T11:04:18.039Z,4.10
2017-09-10T11:06:44.751Z,4.00
2017-09-10T11:09:11.478Z,3.57
2017-09-10T11:11:38.208Z,4.07
2017-09-10T11:14:04.929Z,3.27
2017-09-10T11:16:31.655Z,3.50
2017-09-10T11:18:58.399Z,4.20
2017-09-10T11:21:25.156Z,3.70
2017-09-10T11:23:51.879Z,4.00
2017-09-10T11:26:18.678Z,3.93
2017-09-10T11:28:45.387Z,3.43
2017-09-10T11:31:12.109Z,4.53
2017-09-10T11:33:38.839Z,4.00
2017-09-10T11:36:05.568Z,4.40
2017-09-10T11:38:32.299Z,3.87
2017-09-10T11:40:59.050Z,4.17
2017-09-10T11:43:25.832Z,4.83
2017-09-10T11:45:52.569Z,4.17
2017-09-10T11:48:19.286Z,4.10
2017-09-10T11:50:46.004Z,4.27
2017-09-10T11:53:12.734Z,3.90
2017-09-10T11:55:39.457Z,3.97
2017-09-10T11:58:06.184Z,3.80
2017-09-10T12:00:32.903Z,4.40
2017-09-10T12:02:59.641Z,3.30
2017-09-10T12:05:26.382Z,4.20
2017-09-10T12:07:53.103Z,4.20
2017-09-10T12:10:19.827Z,4.20
2017-09-10T12:12:46.549Z,4.20
2017-09-10T12:15:13.274Z,4.17
2017-09-10T12:17:39.987Z,4.30
2017-09-10T12:20:06.708Z,3.93
2017-09-10T12:22:33.423Z,3.50
2017-09-10T12:25:00.208Z,3.90
2017-09-10T12:27:26.943Z,4.30
2017-09-10T12:29:53.650Z,4.50
2017-09-10T12:32:20.360Z,4.47
2017-09-10T12:34:47.070Z,4.40
2017-09-10T12:37:13.782Z,4.20
2017-09-10T12:39:40.519Z,4.17
2017-09-10T12:42:07.242Z,4.87
2017-09-10T12:44:34.007Z,3.77
2017-09-10T12:47:00.717Z,4.23
2017-09-10T12:49:27.427Z,4.33
2017-09-10T12:51:54.162Z,4.53
2017-09-10T12:54:20.907Z,4.10
2017-09-10T12:56:47.636Z,4.73
2017-09-10T12:59:14.341Z,4.50
2017-09-10T13:01:41.079Z,4.17
2017-09-10T13:04:07.807Z,4.10
2017-09-10T13:06:34.508Z,4.57
2017-09-10T13:09:01.220Z,4.80
2017-09-10T13:11:27.931Z,4.40
2017-09-10T13:13:54.666Z,4.57
2017-09-10T13:16:21.371Z,4.10
2017-09-10T13:18:48.081Z,5.10
2017-09-10T13:21:14.800Z,5.03
2017-09-10T13:23:41.532Z,4.73
2017-09-10T13:26:08.259Z,5.97
2017-09-10T13:28:34.973Z,5.03
2017-09-10T13:31:01.699Z,4.60
2017-09-10T13:33:28.410Z,4.47
2017-09-10T13:35:55.178Z,4.20
2017-09-10T13:38:21.890Z,4.40
2017-09-10T13:40:48.607Z,5.10
2017-09-10T13:43:15.310Z,4.10
2017-09-10T13:45:42.034Z,4.57
2017-09-10T13:48:08.737Z,5.10
2017-09-10T13:50:35.440Z,5.10
2017-09-10T13:53:02.155Z,4.67
2017-09-10T13:55:28.874Z,4.33
2017-09-10T13:57:55.592Z,4.37
2017-09-10T14:00:22.315Z,4.37
2017-09-10T14:02:49.046Z,4.43
2017-09-10T14:05:15.755Z,5.03
2017-09-10T14:07:42.475Z,5.53
2017-09-10T14:10:09.250Z,4.87
2017-09-10T14:12:35.975Z,4.50
2017-09-10T14:15:02.727Z,4.77
2017-09-10T14:17:29.444Z,4.90
2017-09-10T14:19:56.154Z,5.30
2017-09-10T14:22:22.882Z,4.80
2017-09-10T14:24:49.630Z,4.97
2017-09-10T14:27:16.334Z,4.40
2017-09-10T14:29:43.049Z,5.60
2017-09-10T14:32:09.761Z,4.47
2017-09-10T14:34:36.491Z,4.83
2017-09-10T14:37:03.218Z,5.23
2017-09-10T14:39:29.937Z,5.20
2017-09-10T14:41:56.639Z,5.40
2017-09-10T14:44:23.366Z,4.63
2017-09-10T14:46:50.079Z,4.60
2017-09-10T14:49:16.784Z,5.00
2017-09-10T14:51:43.486Z,5.17
2017-09-10T14:54:10.192Z,4.63
2017-09-10T14:56:36.901Z,4.83
2017-09-10T14:59:03.634Z,5.33
2017-09-10T15:01:30.355Z,4.87
2017-09-10T15:03:57.087Z,4.23
2017-09-10T15:06:23.806Z,5.03
2017-09-10T15:08:50.521Z,5.00
2017-09-10T15:11:17.230Z,5.17
2017-09-10T15:13:43.983Z,4.70
2017-09-10T15:16:10.865Z,4.93
2017-09-10T15:18:37.603Z,5.07
2017-09-10T15:21:04.318Z,5.50
2017-09-10T15:23:31.034Z,5.47
2017-09-10T15:25:57.754Z,4.77
2017-09-10T15:28:24.474Z,5.63
2017-09-10T15:30:51.220Z,5.23
2017-09-10T15:33:17.939Z,5.20
2017-09-10T15:35:44.657Z,5.10
2017-09-10T15:38:11.374Z,4.77
2017-09-10T15:40:38.121Z,5.50
2017-09-10T15:43:04.855Z,5.17
2017-09-10T15:45:31.578Z,4.40
2017-09-10T15:47:58.282Z,5.57
2017-09-10T15:50:25.002Z,5.20
2017-09-10T15:52:51.718Z,5.60
2017-09-10T15:55:18.465Z,4.77
2017-09-10T15:57:45.251Z,5.20
2017-09-10T16:00:12.017Z,6.23
2017-09-10T16:02:38.750Z,5.10
2017-09-10T16:05:05.475Z,4.97
2017-09-10T16:07:32.185Z,5.63
2017-09-10T16:09:58.898Z,5.60
2017-09-10T16:12:25.621Z,5.20
2017-09-10T16:14:52.340Z,5.30
2017-09-10T16:17:19.055Z,5.77
2017-09-10T16:19:45.768Z,5.77
2017-09-10T16:22:12.483Z,5.97
2017-09-10T16:24:39.240Z,6.27
2017-09-10T16:27:05.958Z,5.90
2017-09-10T16:29:32.683Z,5.80
2017-09-10T16:31:59.411Z,6.17
2017-09-10T16:34:26.156Z,6.27
2017-09-10T16:36:52.876Z,4.57
2017-09-10T16:39:19.593Z,6.37
2017-09-10T16:41:46.353Z,6.03
2017-09-10T16:44:13.102Z,5.93
2017-09-10T16:46:39.829Z,5.60
2017-09-10T16:49:06.572Z,5.70
2017-09-10T16:51:33.309Z,5.30
2017-09-10T16:54:00.034Z,6.17
2017-09-10T16:56:26.785Z,6.07
2017-09-10T16:58:53.571Z,6.03
2017-09-10T17:01:20.297Z,6.30
2017-09-10T17:03:47.096Z,6.30
2017-09-10T17:06:13.832Z,5.40
2017-09-10T17:08:40.573Z,9.47
2017-09-10T17:11:07.297Z,7.70
2017-09-10T17:13:34.008Z,6.77
2017-09-10T17:16:00.730Z,6.13
2017-09-10T17:18:27.461Z,6.73
2017-09-10T17:20:54.199Z,6.13
2017-09-10T17:23:20.976Z,6.27
2017-09-10T17:25:47.691Z,6.40
2017-09-10T17:28:14.407Z,5.70
2017-09-10T17:30:41.147Z,6.77
2017-09-10T17:33:07.882Z,5.00
2017-09-10T17:35:34.600Z,6.03
2017-09-10T17:38:02.070Z,5.90
2017-09-10T17:40:28.780Z,6.47
2017-09-10T17:42:56.042Z,5.83
2017-09-10T17:45:22.823Z,6.67
2017-09-10T17:47:49.562Z,5.30
2017-09-10T17:50:16.288Z,6.17
2017-09-10T17:52:42.999Z,6.20
2017-09-10T17:55:09.860Z,6.13
2017-09-10T17:57:36.771Z,6.27
2017-09-10T18:00:03.533Z,5.93
2017-09-10T18:02:30.375Z,6.07
2017-09-10T18:04:57.094Z,6.23
2017-09-10T18:07:23.910Z,5.87
2017-09-10T18:09:50.670Z,6.57
2017-09-10T18:12:17.392Z,5.73
2017-09-10T18:14:44.194Z,6.53
2017-09-10T18:17:11.055Z,5.30
2017-09-10T18:19:37.867Z,6.13
2017-09-10T18:22:04.651Z,6.40
2017-09-10T18:24:31.461Z,6.67
2017-09-10T18:26:58.222Z,6.40
2017-09-10T18:29:25.194Z,6.67
2017-09-10T18:31:52.030Z,6.40
2017-09-10T18:34:18.800Z,7.43
2017-09-10T18:36:45.540Z,6.67
2017-09-10T18:39:12.270Z,6.37
2017-09-10T18:41:39.016Z,6.13
2017-09-10T18:44:05.736Z,6.30
2017-09-10T18:46:32.495Z,7.23
2017-09-10T18:48:59.220Z,6.77
2017-09-10T18:51:25.950Z,6.77
2017-09-10T18:53:52.700Z,6.83
2017-09-10T18:56:19.669Z,6.97
2017-09-10T18:58:46.465Z,6.23
2017-09-10T19:01:13.227Z,6.00
2017-09-10T19:03:40.007Z,7.27
2017-09-10T19:06:06.939Z,7.07
2017-09-10T19:08:33.792Z,8.50
2017-09-10T19:11:00.741Z,6.27
2017-09-10T19:13:27.496Z,6.70
2017-09-10T19:15:54.259Z,6.87
2017-09-10T19:18:21.203Z,5.90
2017-09-10T19:20:47.984Z,6.10
2017-09-10T19:23:14.744Z,6.83
2017-09-10T19:25:41.475Z,7.40
2017-09-10T19:28:08.300Z,6.10
2017-09-10T19:30:35.035Z,6.90
2017-09-10T19:33:01.822Z,6.30
2017-09-10T19:35:28.566Z,7.40
2017-09-10T19:37:55.352Z,6.90
2017-09-10T19:40:22.123Z,7.33
2017-09-10T19:42:48.853Z,6.60
2017-09-10T19:45:15.624Z,7.67
2017-09-10T19:47:42.345Z,7.23
2017-09-10T19:50:09.077Z,7.27
2017-09-10T19:52:35.804Z,7.60
2017-09-10T19:55:02.527Z,6.90
2017-09-10T19:57:29.267Z,6.83
2017-09-10T19:59:56.006Z,7.70
2017-09-10T20:02:22.707Z,7.10
2017-09-10T20:04:49.441Z,7.13
2017-09-10T20:07:16.186Z,7.20
2017-09-10T20:09:42.940Z,7.07
2017-09-10T20:12:09.702Z,6.73
2017-09-10T20:14:36.457Z,8.13
2017-09-10T20:17:03.189Z,8.30
2017-09-10T20:19:29.922Z,9.00
2017-09-10T20:21:56.675Z,8.47
2017-09-10T20:24:23.447Z,8.53
2017-09-10T20:26:50.171Z,8.20
2017-09-10T20:29:16.897Z,8.30
2017-09-10T20:31:43.852Z,8.73
2017-09-10T20:34:10.648Z,8.10
2017-09-10T20:36:49.334Z,8.00
2017-09-10T20:39:47.572Z,8.20
2017-09-10T20:42:34.401Z,8.67
2017-09-10T20:45:21.251Z,8.63
2017-09-10T20:56:56.608Z,9.20
2017-09-10T20:59:24.651Z,7.23
2017-09-10T21:02:02.929Z,7.70
2017-09-10T21:07:55.070Z,8.90
2017-09-10T21:10:26.442Z,8.70
2017-09-10T21:16:11.912Z,8.17
2017-09-10T21:18:58.124Z,7.97
2017-09-10T21:21:24.861Z,8.33
2017-09-10T21:23:51.582Z,7.77
2017-09-10T21:26:18.342Z,10.10
2017-09-10T21:28:45.110Z,9.30
2017-09-10T21:31:11.826Z,9.77
2017-09-10T21:33:38.568Z,8.50
2017-09-10T21:36:05.358Z,8.93
2017-09-10T21:38:32.081Z,9.20
2017-09-10T21:40:58.803Z,9.20
2017-09-10T21:43:25.531Z,8.90
2017-09-10T21:45:52.241Z,9.30
2017-09-10T21:48:18.984Z,9.90
2017-09-10T21:50:45.715Z,9.03
2017-09-10T21:53:12.447Z,9.50
2017-09-10T21:55:39.158Z,9.10
2017-09-10T21:58:05.876Z,9.87
2017-09-10T22:00:32.622Z,8.77
2017-09-10T22:02:59.407Z,9.50
2017-09-10T22:05:26.128Z,9.07
2017-09-10T22:07:52.865Z,9.47
2017-09-10T22:10:19.596Z,9.57
2017-09-10T22:12:46.335Z,9.80
2017-09-10T22:15:13.071Z,9.00
2017-09-10T22:17:39.780Z,8.97
2017-09-10T22:20:06.524Z,8.67
2017-09-10T22:22:33.258Z,9.93
2017-09-10T22:24:59.992Z,9.40
2017-09-10T22:27:26.715Z,8.63
2017-09-10T22:29:53.443Z,9.03
2017-09-10T22:32:20.175Z,9.30
2017-09-10T22:34:46.925Z,9.00
2017-09-10T22:37:13.650Z,8.70
2017-09-10T22:39:40.370Z,9.73
2017-09-10T22:42:07.111Z,9.20
2017-09-10T22:44:33.829Z,8.60
2017-09-10T22:47:00.550Z,9.17
2017-09-10T22:49:27.304Z,8.30
2017-09-10T22:51:54.056Z,10.00
2017-09-10T22:54:20.771Z,8.70
2017-09-10T22:56:47.500Z,10.07
2017-09-10T22:59:14.224Z,8.50
2017-09-10T23:01:40.953Z,8.80
2017-09-10T23:04:07.693Z,9.00
2017-09-10T23:06:34.415Z,9.27
2017-09-10T23:09:01.133Z,9.20
2017-09-10T23:11:27.852Z,9.50
2017-09-10T23:13:54.572Z,9.67
2017-09-10T23:16:21.317Z,9.37
2017-09-10T23:18:48.055Z,8.90
2017-09-10T23:21:14.802Z,9.63
2017-09-10T23:23:41.517Z,8.77
2017-09-10T23:26:08.229Z,8.50
2017-09-10T23:28:34.951Z,8.60
2017-09-10T23:31:01.688Z,8.60
2017-09-10T23:33:28.425Z,10.73
2017-09-10T23:35:55.148Z,9.17
2017-09-10T23:38:21.871Z,9.60
2017-09-10T23:40:48.595Z,9.40
2017-09-10T23:43:15.299Z,9.93
2017-09-10T23:45:42.006Z,9.40
2017-09-10T23:48:08.753Z,9.30
2017-09-10T23:50:35.481Z,8.80
2017-09-10T23:53:02.203Z,9.30
2017-09-10T23:55:28.960Z,9.53
2017-09-10T23:57:55.671Z,9.53
